Time;durP1;ratioP1;P1;durP2;ratioP2;P2;SDS_P1;SDS_P2;PMS_P1;PMS_P2;Temp;Humidity;BMP_temperature;BMP_pressure;BME280_temperature;BME280_humidity;BME280_pressure;Samples;Min_cycle;Max_cycle;Signal;HPM_P1;HPM_P2
2023/10/24 00:00:39;;;;;;;12.25;6.93;;;11.60;99.90;;;;;;2048415;28;20334;-76
2023/10/24 00:01:40;;;;;;;13.52;7.13;;;11.60;99.90;;;;;;2049564;28;20041;-76
2023/10/24 00:02:40;;;;;;;16.95;7.60;;;11.60;99.90;;;;;;2058645;28;20055;-76
2023/10/24 00:03:41;;;;;;;12.82;7.20;;;11.60;99.90;;;;;;2055565;28;20038;-76
2023/10/24 00:04:42;;;;;;;15.27;7.45;;;11.60;99.90;;;;;;2058495;28;20096;-76
2023/10/24 00:05:42;;;;;;;14.30;7.45;;;11.60;99.90;;;;;;2059242;28;20037;-78
2023/10/24 00:06:43;;;;;;;12.25;7.13;;;11.50;99.90;;;;;;2048829;28;20058;-77
2023/10/24 00:07:46;;;;;;;11.23;6.93;;;11.60;99.90;;;;;;2042834;28;20038;-76
2023/10/24 00:08:46;;;;;;;14.40;7.25;;;11.60;99.90;;;;;;2055347;28;20054;-75
2023/10/24 00:09:47;;;;;;;12.98;7.68;;;11.60;99.90;;;;;;2058822;28;20038;-75
2023/10/24 00:10:48;;;;;;;13.00;7.70;;;11.60;99.90;;;;;;2059811;28;20485;-70
2023/10/24 00:11:48;;;;;;;12.75;7.65;;;11.60;99.90;;;;;;2057874;28;20037;-70
2023/10/24 00:12:49;;;;;;;16.08;7.57;;;11.50;99.90;;;;;;2055706;28;20105;-75
2023/10/24 00:13:49;;;;;;;13.75;7.63;;;11.50;99.90;;;;;;2062253;28;20549;-68
2023/10/24 00:14:50;;;;;;;15.40;7.25;;;11.50;99.90;;;;;;2059649;28;20034;-68
2023/10/24 00:15:50;;;;;;;13.15;7.57;;;11.60;99.90;;;;;;2054002;28;20133;-68
2023/10/24 00:16:51;;;;;;;12.80;7.68;;;11.50;99.90;;;;;;2062118;28;20125;-67
2023/10/24 00:17:52;;;;;;;12.30;7.30;;;11.60;99.90;;;;;;2062220;28;20032;-67
2023/10/24 00:18:52;;;;;;;15.00;7.75;;;11.60;99.90;;;;;;2054389;28;20046;-68
2023/10/24 00:19:53;;;;;;;12.98;7.43;;;11.50;99.90;;;;;;2061864;28;20034;-67
2023/10/24 00:20:53;;;;;;;15.45;7.70;;;11.60;99.90;;;;;;2058895;28;20604;-68
2023/10/24 00:21:54;;;;;;;16.35;7.60;;;11.60;99.90;;;;;;2054078;28;20031;-68
2023/10/24 00:22:54;;;;;;;13.80;7.85;;;11.60;99.90;;;;;;2059199;28;20028;-68
2023/10/24 00:23:55;;;;;;;14.80;7.80;;;11.60;99.90;;;;;;2058689;28;20019;-68
2023/10/24 00:24:56;;;;;;;13.93;7.78;;;11.60;99.90;;;;;;2057886;28;20485;-68
2023/10/24 00:25:56;;;;;;;12.70;7.88;;;11.50;99.90;;;;;;2055120;28;20022;-68
2023/10/24 00:26:57;;;;;;;14.25;8.32;;;11.50;99.90;;;;;;2057742;28;20582;-69
2023/10/24 00:27:58;;;;;;;12.30;7.90;;;11.60;99.90;;;;;;2055397;28;20023;-68
2023/10/24 00:28:59;;;;;;;15.70;8.20;;;11.60;99.90;;;;;;2046639;28;20142;-68
2023/10/24 00:30:00;;;;;;;15.15;8.57;;;11.60;99.90;;;;;;2054194;28;20097;-68
2023/10/24 00:31:00;;;;;;;17.13;9.32;;;11.60;99.90;;;;;;2050460;28;20026;-68
2023/10/24 00:32:01;;;;;;;16.90;10.00;;;11.60;99.90;;;;;;2049377;28;20938;-68
2023/10/24 00:33:03;;;;;;;19.20;9.50;;;11.60;99.90;;;;;;2056846;28;20065;-68
2023/10/24 00:34:03;;;;;;;19.65;9.25;;;11.60;99.90;;;;;;2058406;28;20100;-68
2023/10/24 00:35:05;;;;;;;17.40;9.35;;;11.60;99.90;;;;;;2055030;28;20022;-68
2023/10/24 00:36:06;;;;;;;17.77;9.00;;;11.60;99.90;;;;;;2053281;28;20614;-68
2023/10/24 00:37:06;;;;;;;17.13;9.10;;;11.60;99.90;;;;;;2051723;28;20510;-67
2023/10/24 00:38:07;;;;;;;16.95;9.38;;;11.60;99.90;;;;;;2046003;28;20121;-68
2023/10/24 00:39:08;;;;;;;16.15;9.00;;;11.60;99.90;;;;;;2057538;28;20121;-68
2023/10/24 00:40:09;;;;;;;15.77;8.77;;;11.50;99.90;;;;;;2047844;28;20585;-67
2023/10/24 00:41:10;;;;;;;17.42;9.48;;;11.50;99.90;;;;;;2050594;28;20113;-68
2023/10/24 00:42:10;;;;;;;17.10;9.95;;;11.50;99.90;;;;;;2056709;28;20045;-67
2023/10/24 00:43:11;;;;;;;20.15;10.65;;;11.60;99.90;;;;;;2055407;28;20031;-68
2023/10/24 00:44:13;;;;;;;39.95;18.65;;;11.50;99.90;;;;;;2058355;28;20784;-68
2023/10/24 00:45:14;;;;;;;45.28;18.42;;;11.50;99.90;;;;;;2059676;28;20096;-68
2023/10/24 00:46:14;;;;;;;37.97;17.73;;;11.50;99.90;;;;;;2058728;28;20600;-67
2023/10/24 00:47:15;;;;;;;43.83;19.40;;;11.50;99.90;;;;;;2061835;28;20061;-68
2023/10/24 00:48:16;;;;;;;39.20;18.60;;;11.50;99.90;;;;;;2058260;28;20140;-68
2023/10/24 00:49:17;;;;;;;36.15;18.05;;;11.50;99.90;;;;;;2055300;28;20462;-67
2023/10/24 00:50:18;;;;;;;44.70;19.45;;;11.50;99.90;;;;;;2056505;28;20045;-68
2023/10/24 00:51:20;;;;;;;41.08;18.60;;;11.60;99.90;;;;;;2062421;28;20030;-68
2023/10/24 00:52:20;;;;;;;31.13;15.07;;;11.50;99.90;;;;;;2058473;28;20035;-68
2023/10/24 00:53:21;;;;;;;25.02;12.90;;;11.60;99.90;;;;;;2058617;28;20036;-68
2023/10/24 00:54:22;;;;;;;25.98;14.05;;;11.60;99.90;;;;;;2061745;28;20068;-68
2023/10/24 00:55:23;;;;;;;25.15;13.30;;;11.60;99.90;;;;;;2058433;28;20115;-68
2023/10/24 00:56:24;;;;;;;20.20;10.85;;;11.60;99.90;;;;;;2040027;28;20107;-68
2023/10/24 00:57:26;;;;;;;20.08;10.43;;;11.60;99.90;;;;;;2043699;28;20059;-67
2023/10/24 00:58:27;;;;;;;17.65;10.50;;;11.70;99.90;;;;;;2058166;28;20382;-67
2023/10/24 00:59:28;;;;;;;20.90;10.57;;;11.70;99.90;;;;;;2059145;28;20030;-68
2023/10/24 01:00:30;;;;;;;20.58;10.27;;;11.70;99.90;;;;;;2061096;28;20113;-68
2023/10/24 01:01:31;;;;;;;20.33;10.80;;;11.60;99.90;;;;;;2053105;28;20038;-69
2023/10/24 01:02:32;;;;;;;21.50;12.20;;;11.60;99.90;;;;;;2047628;28;20077;-67
2023/10/24 01:03:33;;;;;;;21.08;11.00;;;11.60;99.90;;;;;;2032749;29;20043;-67
2023/10/24 01:04:35;;;;;;;21.35;11.32;;;11.60;99.90;;;;;;2038039;28;20038;-76
2023/10/24 01:05:36;;;;;;;23.50;12.00;;;11.60;99.90;;;;;;2054359;28;20043;-76
2023/10/24 01:06:36;;;;;;;19.77;11.10;;;11.60;99.90;;;;;;2053248;28;20026;-75
2023/10/24 01:07:37;;;;;;;23.08;11.43;;;11.60;99.90;;;;;;2060509;28;20506;-76
2023/10/24 01:08:38;;;;;;;20.35;10.50;;;11.60;99.90;;;;;;2050191;28;20646;-76
2023/10/24 01:09:41;;;;;;;17.90;10.13;;;11.60;99.90;;;;;;2050281;28;20034;-76
2023/10/24 01:10:42;;;;;;;16.92;9.57;;;11.60;99.90;;;;;;2057743;28;20466;-75
2023/10/24 01:11:43;;;;;;;19.52;9.80;;;11.60;99.90;;;;;;2055192;28;20105;-77
2023/10/24 01:12:43;;;;;;;17.17;9.20;;;11.60;99.90;;;;;;2049994;28;20034;-74
2023/10/24 01:13:44;;;;;;;17.77;8.60;;;11.60;99.90;;;;;;2050148;28;20041;-75
2023/10/24 01:14:44;;;;;;;16.73;8.52;;;11.70;99.90;;;;;;2053902;28;20042;-75
2023/10/24 01:15:45;;;;;;;17.90;8.93;;;11.70;99.90;;;;;;2054206;28;20077;-75
2023/10/24 01:16:46;;;;;;;17.55;8.90;;;11.70;99.90;;;;;;2049911;28;20080;-75
2023/10/24 01:17:48;;;;;;;15.07;8.20;;;11.70;99.90;;;;;;2052991;28;20076;-75
2023/10/24 01:18:49;;;;;;;16.30;8.57;;;11.70;99.90;;;;;;2054545;28;20038;-75
2023/10/24 01:19:49;;;;;;;17.85;8.88;;;11.70;99.90;;;;;;2062068;28;20029;-77
2023/10/24 01:20:50;;;;;;;14.27;8.57;;;11.70;99.90;;;;;;2061548;28;20076;-76
2023/10/24 01:21:51;;;;;;;15.50;8.30;;;11.80;99.90;;;;;;2057940;28;20034;-75
2023/10/24 01:22:51;;;;;;;13.52;8.25;;;11.70;99.90;;;;;;2055118;28;20138;-77
2023/10/24 01:23:54;;;;;;;14.93;8.82;;;11.70;99.90;;;;;;2061506;28;20036;-74
2023/10/24 01:24:55;;;;;;;14.45;8.50;;;11.70;99.90;;;;;;2051487;28;20121;-75
2023/10/24 01:25:57;;;;;;;15.18;8.52;;;11.70;99.90;;;;;;2059201;28;20141;-75
2023/10/24 01:26:58;;;;;;;16.02;8.63;;;11.70;99.90;;;;;;2044545;28;20038;-75
2023/10/24 01:28:00;;;;;;;16.95;8.60;;;11.70;99.90;;;;;;2042128;28;20031;-76
2023/10/24 01:29:01;;;;;;;14.68;8.50;;;11.70;99.90;;;;;;2053662;28;20032;-76
2023/10/24 01:30:02;;;;;;;17.15;8.40;;;11.70;99.90;;;;;;2058240;28;20505;-76
2023/10/24 01:31:03;;;;;;;13.25;8.27;;;11.60;99.90;;;;;;2058743;28;20026;-75
2023/10/24 01:32:04;;;;;;;17.33;8.82;;;11.60;99.90;;;;;;2057981;28;20101;-75
2023/10/24 01:33:04;;;;;;;19.60;8.80;;;11.60;99.90;;;;;;2062230;28;20038;-75
2023/10/24 01:34:05;;;;;;;14.65;8.70;;;11.60;99.90;;;;;;2059320;28;20026;-75
2023/10/24 01:35:07;;;;;;;16.08;8.75;;;11.50;99.90;;;;;;2060180;28;20030;-75
2023/10/24 01:36:07;;;;;;;14.10;8.55;;;11.60;99.90;;;;;;2050191;28;20615;-74
2023/10/24 01:37:09;;;;;;;16.13;8.93;;;11.50;99.90;;;;;;2045011;28;20066;-75
2023/10/24 01:38:10;;;;;;;18.17;8.68;;;11.50;99.90;;;;;;2050370;28;20051;-75
2023/10/24 01:39:11;;;;;;;14.57;9.18;;;11.50;99.90;;;;;;2054128;28;20042;-76
2023/10/24 01:40:12;;;;;;;16.25;8.75;;;11.50;99.90;;;;;;2043180;28;20039;-76
2023/10/24 01:41:13;;;;;;;17.98;8.50;;;11.50;99.90;;;;;;2049760;28;20035;-76
2023/10/24 01:42:13;;;;;;;15.77;8.57;;;11.50;99.90;;;;;;2052746;28;20033;-76
2023/10/24 01:43:14;;;;;;;18.67;8.90;;;11.50;99.90;;;;;;2053312;28;20145;-76
2023/10/24 01:44:14;;;;;;;21.25;10.43;;;11.50;99.90;;;;;;2049365;28;20046;-76
2023/10/24 01:45:16;;;;;;;24.23;13.05;;;11.50;99.90;;;;;;2058791;28;20041;-75
2023/10/24 01:46:17;;;;;;;23.80;13.02;;;11.50;99.90;;;;;;2062223;28;20032;-75
2023/10/24 01:47:18;;;;;;;36.70;17.95;;;11.50;99.90;;;;;;2061199;28;20026;-75
2023/10/24 01:48:19;;;;;;;64.63;28.77;;;11.50;99.90;;;;;;2049893;28;20027;-75
2023/10/24 01:49:21;;;;;;;66.43;30.48;;;11.60;99.90;;;;;;2052484;28;20553;-76
2023/10/24 01:50:21;;;;;;;67.43;29.73;;;11.50;99.90;;;;;;2055329;28;20031;-74
2023/10/24 01:51:22;;;;;;;50.97;23.25;;;11.60;99.90;;;;;;2060014;28;20038;-75
2023/10/24 01:52:23;;;;;;;55.28;24.48;;;11.60;99.90;;;;;;2054736;28;20053;-75
2023/10/24 01:53:23;;;;;;;50.60;22.85;;;11.60;99.90;;;;;;2054128;28;20065;-74
2023/10/24 01:54:24;;;;;;;29.92;15.73;;;11.60;99.90;;;;;;2061171;28;20025;-75
2023/10/24 01:55:25;;;;;;;35.03;16.10;;;11.60;99.90;;;;;;2043004;28;20094;-75
2023/10/24 01:56:25;;;;;;;26.48;12.27;;;11.60;99.90;;;;;;2047651;28;20026;-76
2023/10/24 01:57:26;;;;;;;19.40;10.70;;;11.60;99.90;;;;;;2055193;28;20023;-75
2023/10/24 01:58:27;;;;;;;22.70;12.43;;;11.60;99.90;;;;;;2048231;28;20540;-74
2023/10/24 01:59:27;;;;;;;21.60;12.27;;;11.60;99.90;;;;;;2049043;28;20101;-74
2023/10/24 02:00:28;;;;;;;21.73;12.45;;;11.60;99.90;;;;;;2047443;28;20026;-75
2023/10/24 02:01:28;;;;;;;24.40;12.75;;;11.60;99.90;;;;;;2044869;28;20498;-75
2023/10/24 02:02:29;;;;;;;20.98;12.13;;;11.60;99.90;;;;;;2050256;28;20477;-74
2023/10/24 02:03:30;;;;;;;20.63;11.68;;;11.60;99.90;;;;;;2057713;28;20557;-74
2023/10/24 02:04:30;;;;;;;21.27;11.90;;;11.60;99.90;;;;;;2050178;28;20030;-74
2023/10/24 02:05:31;;;;;;;27.40;14.82;;;11.60;99.90;;;;;;2049782;28;20401;-75
2023/10/24 02:06:32;;;;;;;24.30;13.55;;;11.60;99.90;;;;;;2057899;28;20512;-75
2023/10/24 02:07:33;;;;;;;20.05;11.20;;;11.60;99.90;;;;;;2056356;28;20065;-74
2023/10/24 02:08:34;;;;;;;21.65;10.68;;;11.60;99.90;;;;;;2056665;28;20030;-75
2023/10/24 02:09:35;;;;;;;17.08;10.82;;;11.60;99.90;;;;;;2054603;28;20022;-74
2023/10/24 02:10:35;;;;;;;22.23;11.77;;;11.60;99.90;;;;;;2047763;28;20035;-75
2023/10/24 02:11:36;;;;;;;19.08;11.73;;;11.60;99.90;;;;;;2051264;28;20038;-76
2023/10/24 02:12:36;;;;;;;20.23;11.63;;;11.60;99.90;;;;;;2061364;28;20030;-74
2023/10/24 02:13:37;;;;;;;21.60;13.05;;;11.50;99.90;;;;;;2060480;28;20121;-75
2023/10/24 02:14:38;;;;;;;21.50;11.90;;;11.60;99.90;;;;;;2045341;28;20031;-75
2023/10/24 02:15:39;;;;;;;16.75;10.10;;;11.60;99.90;;;;;;2048144;28;20027;-74
2023/10/24 02:16:39;;;;;;;13.10;9.18;;;11.60;99.90;;;;;;2057879;28;20473;-75
2023/10/24 02:17:43;;;;;;;18.67;9.10;;;11.60;99.90;;;;;;2053995;28;20058;-75
2023/10/24 02:18:43;;;;;;;16.90;9.30;;;11.60;99.90;;;;;;2058030;28;20097;-75
2023/10/24 02:19:45;;;;;;;16.23;8.98;;;11.60;99.90;;;;;;2058009;28;20033;-74
2023/10/24 02:20:45;;;;;;;15.70;8.85;;;11.60;99.90;;;;;;2062349;28;20040;-75
2023/10/24 02:21:46;;;;;;;17.35;9.07;;;11.60;99.90;;;;;;2057500;28;20034;-75
2023/10/24 02:22:49;;;;;;;17.55;9.23;;;11.60;99.90;;;;;;2059024;28;20655;-75
2023/10/24 02:23:51;;;;;;;18.55;10.02;;;11.60;99.90;;;;;;2062599;28;20120;-76
2023/10/24 02:24:53;;;;;;;20.85;9.77;;;11.60;99.90;;;;;;2062352;28;20560;-75
2023/10/24 02:25:54;;;;;;;16.70;9.38;;;11.60;99.90;;;;;;2062136;28;20100;-75
2023/10/24 02:26:55;;;;;;;17.25;9.43;;;11.60;99.90;;;;;;2050392;28;20545;-75
2023/10/24 02:27:57;;;;;;;14.30;9.27;;;11.50;99.90;;;;;;2046189;28;20433;-75
2023/10/24 02:28:57;;;;;;;19.08;9.27;;;11.50;99.90;;;;;;2053954;28;20022;-74
2023/10/24 02:29:58;;;;;;;16.42;9.18;;;11.50;99.90;;;;;;2049776;28;20457;-74
2023/10/24 02:31:02;;;;;;;12.98;8.35;;;11.50;99.90;;;;;;2049861;28;20023;-76
2023/10/24 02:32:03;;;;;;;15.40;9.25;;;11.50;99.90;;;;;;2057281;28;20026;-76
2023/10/24 02:33:04;;;;;;;14.70;8.50;;;11.50;99.90;;;;;;2056880;28;20022;-76
2023/10/24 02:34:04;;;;;;;16.48;8.73;;;11.50;99.90;;;;;;2047419;28;20031;-76
2023/10/24 02:35:05;;;;;;;15.52;8.80;;;11.50;99.90;;;;;;2052948;28;20023;-73
2023/10/24 02:36:10;;;;;;;16.88;9.20;;;11.50;99.90;;;;;;2056388;28;20496;-76
2023/10/24 02:37:10;;;;;;;15.52;9.02;;;11.50;99.90;;;;;;2048202;28;20584;-76
2023/10/24 02:38:11;;;;;;;19.23;11.30;;;11.50;99.90;;;;;;2047752;28;20039;-75
2023/10/24 02:39:11;;;;;;;14.85;10.10;;;11.50;99.90;;;;;;2049656;28;20831;-76
2023/10/24 02:40:12;;;;;;;16.52;9.80;;;11.50;99.90;;;;;;2052399;28;20149;-75
2023/10/24 02:41:13;;;;;;;14.35;9.30;;;11.50;99.90;;;;;;2052442;28;20041;-74
2023/10/24 02:42:14;;;;;;;14.18;9.02;;;11.50;99.90;;;;;;2052328;28;20022;-75
2023/10/24 02:43:14;;;;;;;15.73;8.73;;;11.50;99.90;;;;;;2054717;28;20065;-75
2023/10/24 02:44:15;;;;;;;16.17;8.52;;;11.50;99.90;;;;;;2051409;28;20618;-75
2023/10/24 02:45:16;;;;;;;12.07;9.15;;;11.50;99.90;;;;;;2053743;28;20041;-75
2023/10/24 02:46:17;;;;;;;15.82;9.82;;;11.50;99.90;;;;;;2060103;28;20642;-75
2023/10/24 02:47:17;;;;;;;19.85;9.88;;;11.40;99.90;;;;;;2052586;28;20116;-75
2023/10/24 02:48:18;;;;;;;14.32;9.27;;;11.40;99.90;;;;;;2056348;28;20035;-75
2023/10/24 02:49:19;;;;;;;16.05;9.88;;;11.40;99.90;;;;;;2057774;28;20034;-76
2023/10/24 02:50:20;;;;;;;15.80;9.27;;;11.40;99.90;;;;;;2054948;28;20031;-76
2023/10/24 02:51:21;;;;;;;14.55;8.98;;;11.40;99.90;;;;;;2048570;28;20034;-76
2023/10/24 02:52:22;;;;;;;18.77;11.30;;;11.40;99.90;;;;;;2049735;28;20054;-76
2023/10/24 02:53:23;;;;;;;12.88;8.23;;;11.50;99.90;;;;;;2058099;28;20058;-75
2023/10/24 02:54:24;;;;;;;16.15;8.75;;;11.50;99.90;;;;;;2050197;28;20611;-76
2023/10/24 02:55:26;;;;;;;14.10;8.70;;;11.40;99.90;;;;;;2052417;28;20077;-75
2023/10/24 02:56:26;;;;;;;15.95;8.80;;;11.40;99.90;;;;;;2054805;28;20031;-75
2023/10/24 02:57:27;;;;;;;17.23;9.40;;;11.40;99.90;;;;;;2058376;28;20382;-78
2023/10/24 02:58:28;;;;;;;13.68;9.52;;;11.40;99.90;;;;;;2045522;28;20279;-75
2023/10/24 02:59:28;;;;;;;16.08;9.52;;;11.30;99.90;;;;;;2045281;28;20031;-75
2023/10/24 03:00:29;;;;;;;16.55;9.48;;;11.30;99.90;;;;;;2049621;28;20046;-77
2023/10/24 03:01:30;;;;;;;14.52;8.93;;;11.30;99.90;;;;;;2037767;28;20479;-75
2023/10/24 03:02:30;;;;;;;13.13;8.70;;;11.30;99.90;;;;;;2049762;28;20022;-75
2023/10/24 03:03:32;;;;;;;12.95;8.38;;;11.30;99.90;;;;;;2057767;28;20746;-74
2023/10/24 03:04:32;;;;;;;14.90;8.85;;;11.30;99.90;;;;;;2058501;28;20022;-75
2023/10/24 03:05:33;;;;;;;14.98;8.65;;;11.30;99.90;;;;;;2059301;28;20488;-76
2023/10/24 03:06:35;;;;;;;14.57;8.00;;;11.40;99.90;;;;;;2050638;28;20019;-75
2023/10/24 03:07:35;;;;;;;15.52;8.40;;;11.40;99.90;;;;;;2061754;28;20839;-76
2023/10/24 03:08:36;;;;;;;13.88;7.85;;;11.40;99.90;;;;;;2060590;28;20034;-75
2023/10/24 03:09:37;;;;;;;14.35;7.30;;;11.40;99.90;;;;;;2054972;28;20031;-76
2023/10/24 03:10:44;;;;;;;12.48;6.75;;;11.50;99.90;;;;;;2057844;28;20112;-76
2023/10/24 03:11:44;;;;;;;11.55;7.25;;;11.50;99.90;;;;;;2052300;28;20133;-76
2023/10/24 03:12:45;;;;;;;15.05;7.68;;;11.60;99.90;;;;;;2052330;28;20031;-76
2023/10/24 03:13:45;;;;;;;12.00;7.18;;;11.60;99.90;;;;;;2058959;28;20027;-75
2023/10/24 03:14:46;;;;;;;15.38;6.97;;;11.70;99.90;;;;;;2051741;28;20034;-75
2023/10/24 03:15:46;;;;;;;13.00;7.05;;;11.70;99.90;;;;;;2048741;28;20027;-76
2023/10/24 03:16:48;;;;;;;12.02;6.72;;;11.80;99.90;;;;;;2055849;28;20737;-75
2023/10/24 03:17:49;;;;;;;13.88;7.15;;;11.80;99.90;;;;;;2061033;28;20046;-76
2023/10/24 03:18:50;;;;;;;9.13;6.78;;;11.90;99.90;;;;;;2061000;28;20028;-76
2023/10/24 03:19:53;;;;;;;10.80;7.25;;;12.00;99.90;;;;;;2054813;28;20512;-76
2023/10/24 03:20:54;;;;;;;11.10;7.07;;;12.00;99.90;;;;;;2050046;28;20026;-75
2023/10/24 03:21:54;;;;;;;8.40;6.47;;;12.10;99.90;;;;;;2059521;28;20026;-77
2023/10/24 03:22:55;;;;;;;12.93;7.22;;;12.10;99.90;;;;;;2059546;28;20027;-74
2023/10/24 03:23:56;;;;;;;10.85;6.60;;;12.10;99.90;;;;;;2061828;28;20261;-75
2023/10/24 03:24:57;;;;;;;9.70;6.43;;;12.10;99.90;;;;;;2055027;28;20022;-75
2023/10/24 03:25:57;;;;;;;13.90;7.05;;;12.10;99.90;;;;;;2062756;28;20030;-76
2023/10/24 03:26:58;;;;;;;15.10;6.38;;;12.10;99.90;;;;;;2062617;28;20036;-74
2023/10/24 03:27:58;;;;;;;12.88;7.15;;;12.10;99.90;;;;;;2052233;28;20038;-75
2023/10/24 03:28:59;;;;;;;11.82;6.97;;;12.10;99.90;;;;;;2055462;28;20041;-73
2023/10/24 03:30:01;;;;;;;19.20;12.82;;;12.20;99.90;;;;;;2063391;28;20033;-74
2023/10/24 03:31:06;;;;;;;12.48;7.00;;;12.20;99.90;;;;;;2051816;28;20027;-73
2023/10/24 03:32:07;;;;;;;13.10;8.10;;;12.20;99.90;;;;;;2062073;28;20022;-74
2023/10/24 03:33:07;;;;;;;14.07;7.78;;;12.20;99.90;;;;;;2056952;28;20093;-73
2023/10/24 03:34:08;;;;;;;11.20;7.22;;;12.20;99.90;;;;;;2047938;28;20123;-74
2023/10/24 03:35:09;;;;;;;12.48;6.80;;;12.30;99.90;;;;;;2050105;28;20027;-74
2023/10/24 03:36:13;;;;;;;11.70;6.85;;;12.30;99.90;;;;;;2063354;28;20042;-74
2023/10/24 03:37:15;;;;;;;12.15;6.75;;;12.30;99.90;;;;;;2056844;28;20078;-74
2023/10/24 03:38:16;;;;;;;11.52;6.82;;;12.30;99.90;;;;;;2055742;28;20074;-75
2023/10/24 03:39:17;;;;;;;10.68;6.93;;;12.30;99.90;;;;;;2057712;28;20034;-73
2023/10/24 03:40:17;;;;;;;11.55;7.57;;;12.30;99.90;;;;;;2055328;28;20038;-74
2023/10/24 03:41:18;;;;;;;12.60;7.80;;;12.30;99.90;;;;;;2055960;28;20113;-74
2023/10/24 03:42:19;;;;;;;18.00;11.27;;;12.30;99.90;;;;;;2053203;28;20026;-74
2023/10/24 03:43:21;;;;;;;15.35;9.32;;;12.30;99.90;;;;;;2049338;28;20071;-75
2023/10/24 03:44:24;;;;;;;19.27;13.13;;;12.30;99.90;;;;;;2047675;28;20070;-74
2023/10/24 03:45:25;;;;;;;16.60;8.70;;;12.30;99.90;;;;;;2051449;28;20091;-75
2023/10/24 03:46:25;;;;;;;12.90;8.60;;;12.30;99.90;;;;;;2062114;28;20026;-74
2023/10/24 03:47:26;;;;;;;13.02;7.50;;;12.30;99.90;;;;;;2050588;28;20085;-74
2023/10/24 03:48:27;;;;;;;12.13;8.02;;;12.30;99.90;;;;;;2051637;28;20139;-74
2023/10/24 03:49:27;;;;;;;16.92;10.77;;;12.30;99.90;;;;;;2059785;28;20089;-74
2023/10/24 03:50:28;;;;;;;13.90;9.50;;;12.30;99.90;;;;;;2058049;28;20038;-73
2023/10/24 03:51:29;;;;;;;12.23;7.35;;;12.30;99.90;;;;;;2050640;28;20034;-74
2023/10/24 03:52:29;;;;;;;13.57;8.00;;;12.30;99.90;;;;;;2059206;28;20141;-75
2023/10/24 03:53:30;;;;;;;21.90;13.30;;;12.30;99.90;;;;;;2052878;28;20272;-75
2023/10/24 03:54:33;;;;;;;44.17;26.13;;;12.30;99.90;;;;;;2055421;28;20027;-74
2023/10/24 03:55:34;;;;;;;11.70;7.30;;;12.30;99.90;;;;;;2055427;28;20030;-74
2023/10/24 03:56:35;;;;;;;16.63;8.00;;;12.30;99.90;;;;;;2059773;28;20022;-74
2023/10/24 03:57:36;;;;;;;14.48;7.53;;;12.30;99.90;;;;;;2062334;28;20046;-76
2023/10/24 03:58:36;;;;;;;21.60;7.93;;;12.30;99.90;;;;;;2056090;28;20034;-76
2023/10/24 03:59:37;;;;;;;18.55;7.60;;;12.30;99.90;;;;;;2058603;28;20483;-74
2023/10/24 04:00:37;;;;;;;10.70;6.78;;;12.30;99.90;;;;;;2043964;28;20051;-74
2023/10/24 04:01:38;;;;;;;35.75;8.02;;;12.20;99.90;;;;;;2053767;28;20033;-75
2023/10/24 04:02:39;;;;;;;24.42;7.78;;;12.20;99.90;;;;;;2048618;28;20038;-74
2023/10/24 04:03:40;;;;;;;23.17;7.97;;;12.20;99.90;;;;;;2053709;28;20101;-76
2023/10/24 04:04:40;;;;;;;11.98;7.20;;;12.20;99.90;;;;;;2060675;28;20031;-74
2023/10/24 04:05:41;;;;;;;14.05;7.40;;;12.20;99.90;;;;;;2058043;28;20088;-74
2023/10/24 04:06:43;;;;;;;15.70;7.35;;;12.10;99.90;;;;;;2056712;28;20029;-75
2023/10/24 04:07:43;;;;;;;11.68;7.18;;;12.10;99.90;;;;;;2057471;28;20026;-74
2023/10/24 04:08:44;;;;;;;14.57;8.05;;;12.10;99.90;;;;;;2061547;28;20451;-74
2023/10/24 04:09:45;;;;;;;11.60;7.18;;;12.10;99.90;;;;;;2061271;28;20030;-74
2023/10/24 04:10:45;;;;;;;14.63;7.03;;;12.10;99.90;;;;;;2059281;28;20030;-74
2023/10/24 04:11:46;;;;;;;10.82;7.05;;;12.00;99.90;;;;;;2053410;28;20026;-76
2023/10/24 04:12:47;;;;;;;12.75;7.40;;;12.10;99.90;;;;;;2059338;28;20467;-75
2023/10/24 04:13:47;;;;;;;15.60;7.80;;;12.00;99.90;;;;;;2059359;28;20061;-75
2023/10/24 04:14:48;;;;;;;10.80;7.07;;;12.00;99.90;;;;;;2057410;28;20621;-74
2023/10/24 04:15:51;;;;;;;11.00;7.28;;;12.00;99.90;;;;;;2060953;28;20029;-75
2023/10/24 04:16:52;;;;;;;11.55;7.35;;;12.00;99.90;;;;;;2060746;28;20081;-74
2023/10/24 04:17:52;;;;;;;12.23;7.63;;;12.10;99.90;;;;;;2058137;28;20102;-77
2023/10/24 04:18:53;;;;;;;13.00;7.05;;;12.00;99.90;;;;;;2055325;28;20022;-75
2023/10/24 04:19:53;;;;;;;12.77;7.35;;;12.00;99.90;;;;;;2057286;28;20032;-76
2023/10/24 04:20:54;;;;;;;12.85;7.63;;;12.10;99.90;;;;;;2057677;28;20113;-75
2023/10/24 04:21:55;;;;;;;12.27;7.25;;;12.00;99.90;;;;;;2062762;28;20050;-75
2023/10/24 04:22:55;;;;;;;11.68;7.20;;;12.00;99.90;;;;;;2060318;28;20029;-75
2023/10/24 04:23:56;;;;;;;15.65;7.10;;;12.00;99.90;;;;;;2057177;28;20043;-76
2023/10/24 04:24:56;;;;;;;14.80;7.72;;;12.00;99.90;;;;;;2061652;28;20031;-75
2023/10/24 04:25:57;;;;;;;13.15;7.43;;;12.00;99.90;;;;;;2061565;28;20189;-75
2023/10/24 04:26:59;;;;;;;12.15;7.90;;;12.00;99.90;;;;;;2056856;28;20031;-75
2023/10/24 04:27:59;;;;;;;12.65;7.50;;;12.00;99.90;;;;;;2061975;28;20038;-75
2023/10/24 04:29:00;;;;;;;11.07;7.15;;;12.00;99.90;;;;;;2062172;28;20053;-75
2023/10/24 04:30:00;;;;;;;15.55;8.00;;;12.00;99.90;;;;;;2055614;28;20509;-76
2023/10/24 04:31:01;;;;;;;10.48;7.10;;;12.00;99.90;;;;;;2055309;28;20037;-76
2023/10/24 04:32:03;;;;;;;13.18;7.25;;;11.90;99.90;;;;;;2058784;28;20493;-77
2023/10/24 04:33:04;;;;;;;13.20;7.45;;;11.90;99.90;;;;;;2054326;28;20030;-77
2023/10/24 04:34:05;;;;;;;12.95;7.43;;;12.00;99.90;;;;;;2050395;28;20022;-78
2023/10/24 04:35:06;;;;;;;17.20;7.50;;;12.00;99.90;;;;;;2051667;28;20027;-77
2023/10/24 04:36:10;;;;;;;14.30;7.50;;;11.90;99.90;;;;;;2058509;28;20034;-77
2023/10/24 04:37:10;;;;;;;13.15;7.40;;;12.00;99.90;;;;;;2053432;28;20044;-77
2023/10/24 04:38:11;;;;;;;13.85;7.32;;;12.00;99.90;;;;;;2052270;28;20026;-77
2023/10/24 04:39:12;;;;;;;11.98;7.20;;;11.90;99.90;;;;;;2062104;28;20496;-77
2023/10/24 04:40:13;;;;;;;14.00;7.25;;;11.90;99.90;;;;;;2051102;28;20494;-77
2023/10/24 04:41:14;;;;;;;15.38;8.10;;;11.90;99.90;;;;;;2052777;28;20035;-77
2023/10/24 04:42:14;;;;;;;16.83;10.70;;;11.90;99.90;;;;;;2059426;28;20031;-77
2023/10/24 04:43:15;;;;;;;16.33;11.90;;;11.90;99.90;;;;;;2059187;28;20026;-77
2023/10/24 04:44:15;;;;;;;14.70;9.43;;;11.90;99.90;;;;;;2057851;28;20113;-77
2023/10/24 04:45:16;;;;;;;15.38;7.93;;;11.90;99.90;;;;;;2056231;28;20074;-78
2023/10/24 04:46:17;;;;;;;12.02;8.32;;;11.90;99.90;;;;;;2063054;28;20065;-77
2023/10/24 04:47:17;;;;;;;19.30;9.02;;;11.90;99.90;;;;;;2057367;28;20031;-79
2023/10/24 04:48:18;;;;;;;17.70;8.48;;;11.90;99.90;;;;;;2059364;28;20034;-77
2023/10/24 04:49:18;;;;;;;12.57;8.30;;;12.00;99.90;;;;;;2060838;28;20026;-78
2023/10/24 04:50:19;;;;;;;13.15;7.85;;;12.00;99.90;;;;;;2056972;28;20026;-76
2023/10/24 04:51:19;;;;;;;13.43;8.30;;;12.00;99.90;;;;;;2058907;28;20505;-78
2023/10/24 04:52:20;;;;;;;15.13;8.40;;;12.00;99.90;;;;;;2061237;28;20030;-78
2023/10/24 04:53:21;;;;;;;17.88;8.70;;;12.00;99.90;;;;;;2061171;28;20105;-77
2023/10/24 04:54:21;;;;;;;13.40;8.32;;;11.90;99.90;;;;;;2054280;28;20070;-79
2023/10/24 04:55:23;;;;;;;15.25;11.20;;;11.90;99.90;;;;;;2049101;28;20363;-78
2023/10/24 04:56:24;;;;;;;17.17;10.02;;;12.00;99.90;;;;;;2050426;28;20641;-77
2023/10/24 04:57:24;;;;;;;23.05;15.52;;;12.00;99.90;;;;;;2058877;28;20042;-78
2023/10/24 04:58:25;;;;;;;17.63;11.60;;;12.10;99.90;;;;;;2055060;28;20027;-76
2023/10/24 04:59:27;;;;;;;16.38;10.40;;;12.10;99.90;;;;;;2051904;28;20026;-77
2023/10/24 05:00:27;;;;;;;19.42;10.75;;;12.10;99.90;;;;;;2050415;28;20026;-78
2023/10/24 05:01:28;;;;;;;12.85;8.45;;;12.10;99.90;;;;;;2049866;28;20035;-76
2023/10/24 05:02:28;;;;;;;12.68;8.68;;;12.10;99.90;;;;;;2059252;28;20053;-77
2023/10/24 05:03:29;;;;;;;12.93;8.77;;;12.10;99.90;;;;;;2056814;28;20075;-77
2023/10/24 05:04:30;;;;;;;11.68;7.85;;;12.20;99.90;;;;;;2057402;28;20311;-78
2023/10/24 05:05:30;;;;;;;15.05;8.45;;;12.10;99.90;;;;;;2056266;28;20053;-76
2023/10/24 05:06:31;;;;;;;15.85;8.65;;;12.20;99.90;;;;;;2057957;28;20075;-77
2023/10/24 05:07:32;;;;;;;13.02;8.43;;;12.20;99.90;;;;;;2058955;28;20501;-77
2023/10/24 05:08:33;;;;;;;13.55;7.93;;;12.20;99.90;;;;;;2057774;28;20038;-76
2023/10/24 05:09:34;;;;;;;14.05;8.35;;;12.20;99.90;;;;;;2061818;28;20380;-76
2023/10/24 05:10:35;;;;;;;12.40;7.97;;;12.20;99.90;;;;;;2057372;28;20103;-77
2023/10/24 05:11:39;;;;;;;16.10;8.77;;;12.20;99.90;;;;;;2058557;28;20026;-77